createdAt,value
2023-04-21T00:01:38.873Z,51.63
2023-04-21T00:04:24.361Z,55.00
2023-04-21T00:07:09.512Z,57.70
2023-04-21T00:09:54.869Z,53.47
2023-04-21T00:12:40.323Z,56.57
2023-04-21T00:15:25.905Z,52.60
2023-04-21T00:18:11.182Z,54.33
2023-04-21T00:20:57.489Z,51.70
2023-04-21T00:23:42.296Z,53.60
2023-04-21T00:26:27.646Z,55.00
2023-04-21T00:29:13.001Z,54.67
2023-04-21T00:31:58.307Z,50.87
2023-04-21T00:34:43.639Z,56.40
2023-04-21T00:37:29.070Z,52.47
2023-04-21T00:40:14.143Z,53.03
2023-04-21T00:42:59.588Z,52.90
2023-04-21T00:45:46.066Z,51.50
2023-04-21T00:48:31.593Z,49.90
2023-04-21T00:51:17.370Z,52.47
2023-04-21T00:54:05.265Z,51.23
2023-04-21T00:56:50.445Z,49.27
2023-04-21T00:59:35.617Z,50.97
2023-04-21T01:02:22.451Z,52.37
2023-04-21T01:05:08.624Z,49.80
2023-04-21T01:07:53.916Z,53.47
2023-04-21T01:10:38.975Z,52.90
2023-04-21T01:13:24.427Z,47.25
2023-04-21T01:16:16.539Z,51.05
2023-04-21T01:19:02.146Z,51.83
2023-04-21T01:21:47.307Z,52.58
2023-04-21T01:24:46.289Z,57.10
2023-04-21T01:27:31.616Z,63.10
2023-04-21T01:30:16.812Z,56.63
2023-04-21T01:33:02.359Z,56.70
2023-04-21T01:35:47.531Z,47.57
2023-04-21T01:38:32.714Z,49.23
2023-04-21T01:41:18.395Z,48.70
2023-04-21T01:44:03.776Z,52.00
2023-04-21T01:46:48.793Z,53.38
2023-04-21T01:49:33.775Z,50.63
2023-04-21T01:52:19.345Z,47.15
2023-04-21T01:55:04.929Z,48.38
2023-04-21T01:57:51.322Z,52.08
2023-04-21T02:00:36.202Z,50.70
2023-04-21T02:03:21.778Z,47.20
2023-04-21T02:06:07.434Z,46.15
2023-04-21T02:08:52.542Z,47.37
2023-04-21T02:11:37.973Z,46.33
2023-04-21T02:14:26.880Z,49.13
2023-04-21T02:17:12.236Z,49.03
2023-04-21T02:19:57.695Z,48.22
2023-04-21T02:22:43.139Z,48.50
2023-04-21T02:25:28.545Z,47.47
2023-04-21T02:28:13.427Z,46.97
2023-04-21T02:30:58.340Z,48.75
2023-04-21T02:33:43.860Z,47.15
2023-04-21T02:36:29.110Z,49.13
2023-04-21T02:39:14.407Z,48.60
2023-04-21T02:41:59.688Z,48.13
2023-04-21T02:44:45.032Z,48.40
2023-04-21T02:47:29.927Z,45.83
2023-04-21T02:50:15.461Z,42.88
2023-04-21T02:53:00.641Z,44.60
2023-04-21T02:55:45.878Z,44.45
2023-04-21T02:58:31.164Z,43.25
2023-04-21T03:01:16.066Z,42.60
2023-04-21T03:04:01.449Z,41.42
2023-04-21T03:06:46.757Z,39.40
2023-04-21T03:09:32.275Z,43.22
2023-04-21T03:12:17.620Z,42.72
2023-04-21T03:15:03.415Z,38.97
2023-04-21T03:17:48.316Z,41.92
2023-04-21T03:20:33.813Z,43.83
2023-04-21T03:23:19.243Z,38.92
2023-04-21T03:26:10.180Z,40.05
2023-04-21T03:28:55.081Z,37.30
2023-04-21T03:31:40.033Z,41.40
2023-04-21T03:34:25.364Z,40.85
2023-04-21T03:37:10.293Z,39.22
2023-04-21T03:39:55.698Z,43.33
2023-04-21T03:42:41.488Z,46.75
2023-04-21T03:45:26.483Z,44.20
2023-04-21T03:48:11.546Z,41.90
2023-04-21T03:50:56.934Z,39.75
2023-04-21T03:53:42.442Z,40.05
2023-04-21T03:56:27.788Z,42.22
2023-04-21T03:59:13.197Z,40.20
2023-04-21T04:01:58.261Z,44.53
2023-04-21T04:04:43.875Z,43.42
2023-04-21T04:07:28.937Z,44.65
2023-04-21T04:10:14.262Z,43.28
2023-04-21T04:12:59.670Z,42.58
2023-04-21T04:15:45.121Z,45.22
2023-04-21T04:18:30.330Z,44.40
2023-04-21T04:21:15.854Z,46.60
2023-04-21T04:24:00.979Z,46.42
2023-04-21T04:26:46.386Z,47.42
2023-04-21T04:29:32.233Z,48.85
2023-04-21T04:32:17.370Z,50.63
2023-04-21T04:35:02.269Z,48.08
2023-04-21T04:37:47.191Z,50.17
2023-04-21T04:40:32.026Z,44.65
2023-04-21T04:43:17.392Z,47.75
2023-04-21T04:46:03.425Z,47.30
2023-04-21T04:48:48.393Z,46.83
2023-04-21T04:51:33.631Z,47.10
2023-04-21T04:54:19.414Z,47.40
2023-04-21T04:57:04.761Z,45.40
2023-04-21T04:59:55.064Z,50.35
2023-04-21T05:02:41.128Z,48.70
2023-04-21T05:05:26.464Z,45.00
2023-04-21T05:08:11.977Z,45.33
2023-04-21T05:10:57.191Z,47.53
2023-04-21T05:13:42.527Z,44.88
2023-04-21T05:16:28.017Z,45.60
2023-04-21T05:19:13.056Z,44.85
2023-04-21T05:22:00.957Z,43.88
2023-04-21T05:24:46.325Z,46.53
2023-04-21T05:27:31.753Z,46.17
2023-04-21T05:30:17.185Z,58.88
2023-04-21T05:33:02.643Z,47.47
2023-04-21T05:35:47.814Z,53.67
2023-04-21T05:38:33.070Z,56.97
2023-04-21T05:41:18.368Z,59.75
2023-04-21T05:44:03.867Z,63.38
2023-04-21T05:46:49.192Z,51.05
2023-04-21T05:49:34.764Z,50.47
2023-04-21T05:52:22.688Z,45.17
2023-04-21T05:55:08.025Z,48.63
2023-04-21T05:57:52.982Z,45.53
2023-04-21T06:00:37.752Z,44.67
2023-04-21T06:03:23.351Z,47.50
2023-04-21T06:06:08.919Z,44.17
2023-04-21T06:08:54.432Z,43.58
2023-04-21T06:11:39.481Z,42.17
2023-04-21T06:14:24.865Z,39.35
2023-04-21T06:17:10.077Z,42.47
2023-04-21T06:19:55.464Z,43.17
2023-04-21T06:22:40.738Z,58.38
2023-04-21T06:25:26.142Z,294.20
2023-04-21T06:28:11.372Z,38.28
2023-04-21T06:30:56.632Z,41.22
2023-04-21T06:33:42.041Z,39.78
2023-04-21T06:36:27.307Z,44.22
2023-04-21T06:39:12.666Z,36.38
2023-04-21T06:41:58.121Z,36.47
2023-04-21T06:44:43.474Z,37.60
2023-04-21T06:47:28.230Z,33.97
2023-04-21T06:50:13.619Z,35.50
2023-04-21T06:52:58.365Z,29.85
2023-04-21T06:55:43.878Z,34.92
2023-04-21T06:58:29.085Z,32.00
2023-04-21T07:01:14.014Z,32.65
2023-04-21T07:03:59.686Z,34.50
2023-04-21T07:06:44.868Z,29.00
2023-04-21T07:09:30.088Z,33.33
2023-04-21T07:12:15.065Z,30.70
2023-04-21T07:15:00.170Z,29.52
2023-04-21T07:17:45.023Z,27.33
2023-04-21T07:20:30.479Z,29.75
2023-04-21T07:23:15.365Z,31.63
2023-04-21T07:26:00.653Z,28.63
2023-04-21T07:28:45.557Z,28.20
2023-04-21T07:31:30.519Z,29.77
2023-04-21T07:34:15.886Z,30.60
2023-04-21T07:37:00.710Z,27.48
2023-04-21T07:39:46.042Z,30.60
2023-04-21T07:42:31.518Z,29.73
2023-04-21T07:45:16.970Z,28.05
2023-04-21T07:48:02.334Z,28.80
2023-04-21T07:50:47.669Z,55.67
2023-04-21T07:53:33.028Z,27.70
2023-04-21T07:56:18.365Z,27.73
2023-04-21T07:59:03.921Z,27.20
2023-04-21T08:01:48.855Z,29.00
2023-04-21T08:04:34.666Z,25.02
2023-04-21T08:07:19.887Z,27.80
2023-04-21T08:10:06.881Z,26.08
2023-04-21T08:12:52.000Z,27.15
2023-04-21T08:15:37.032Z,29.20
2023-04-21T08:18:22.730Z,29.45
2023-04-21T08:21:08.262Z,26.20
2023-04-21T08:23:53.661Z,31.00
2023-04-21T08:26:39.208Z,26.40
2023-04-21T08:29:24.419Z,27.23
2023-04-21T08:32:09.241Z,27.95
2023-04-21T08:34:55.078Z,29.50
2023-04-21T08:37:40.192Z,27.65
2023-04-21T08:40:33.615Z,27.80
2023-04-21T08:43:19.426Z,25.42
2023-04-21T08:46:07.864Z,26.23
2023-04-21T08:48:55.117Z,25.63
2023-04-21T08:51:40.705Z,25.60
2023-04-21T08:54:26.369Z,24.80
2023-04-21T08:57:15.818Z,26.35
2023-04-21T09:00:01.618Z,28.38
2023-04-21T09:03:02.269Z,25.80
2023-04-21T09:05:58.384Z,25.75
2023-04-21T09:08:53.435Z,23.48
2023-04-21T09:11:38.777Z,27.10
2023-04-21T09:14:31.837Z,26.48
2023-04-21T09:17:18.350Z,26.63
2023-04-21T09:20:19.647Z,30.08
2023-04-21T09:23:05.513Z,24.50
2023-04-21T09:25:50.506Z,25.95
2023-04-21T09:28:35.996Z,24.67
2023-04-21T09:31:24.182Z,24.63
2023-04-21T09:34:26.466Z,28.60
2023-04-21T09:37:14.169Z,26.55
2023-04-21T09:42:48.498Z,24.95
2023-04-21T09:45:40.089Z,21.88
2023-04-21T09:48:32.137Z,24.40
2023-04-21T09:54:29.151Z,22.70
2023-04-21T09:57:20.976Z,25.45
2023-04-21T10:00:07.795Z,22.35
2023-04-21T10:02:54.541Z,23.52
2023-04-21T10:05:42.334Z,22.92
2023-04-21T10:08:49.629Z,27.65
2023-04-21T10:11:35.653Z,18.58
2023-04-21T10:14:21.373Z,20.15
2023-04-21T10:17:09.435Z,25.15
2023-04-21T10:19:57.558Z,25.95
2023-04-21T10:22:43.436Z,22.95
2023-04-21T10:25:29.923Z,24.88
2023-04-21T10:28:18.649Z,27.27
2023-04-21T10:31:17.088Z,22.08
2023-04-21T10:34:05.179Z,20.17
2023-04-21T10:36:56.743Z,21.23
2023-04-21T10:39:53.901Z,22.63
2023-04-21T10:42:39.163Z,18.23
2023-04-21T10:45:27.491Z,21.75
2023-04-21T10:48:13.842Z,19.52
2023-04-21T10:50:58.798Z,19.35
2023-04-21T10:53:44.209Z,17.27
2023-04-21T10:56:29.696Z,17.67
2023-04-21T10:59:15.708Z,18.60
2023-04-21T11:02:00.992Z,18.30
2023-04-21T11:04:51.386Z,19.67
2023-04-21T11:07:36.787Z,21.60
2023-04-21T11:10:22.277Z,20.02
2023-04-21T11:13:07.876Z,19.23
2023-04-21T11:16:06.814Z,17.27
2023-04-21T11:18:51.902Z,17.25
2023-04-21T11:21:37.385Z,17.42
2023-04-21T11:24:23.512Z,18.90
2023-04-21T11:27:08.723Z,17.42
2023-04-21T11:29:53.820Z,17.98
2023-04-21T11:32:39.199Z,16.35
2023-04-21T11:35:25.244Z,18.25
2023-04-21T11:38:10.262Z,21.25
2023-04-21T11:40:55.603Z,20.70
2023-04-21T11:43:45.578Z,18.88
2023-04-21T11:46:31.049Z,15.77
2023-04-21T11:49:16.430Z,14.40
2023-04-21T11:52:01.760Z,19.10
2023-04-21T11:54:47.494Z,16.48
2023-04-21T11:57:33.826Z,17.75
2023-04-21T12:00:19.841Z,17.90
2023-04-21T12:03:09.189Z,16.17
2023-04-21T12:05:56.523Z,15.27
2023-04-21T12:08:41.738Z,16.63
2023-04-21T12:11:28.590Z,15.20
2023-04-21T12:14:15.156Z,11.80
2023-04-21T12:17:00.781Z,13.48
2023-04-21T12:19:46.407Z,13.55
2023-04-21T12:22:31.788Z,16.98
2023-04-21T12:25:17.175Z,14.75
2023-04-21T12:28:02.240Z,16.58
2023-04-21T12:30:47.690Z,13.82
2023-04-21T12:33:33.539Z,16.23
2023-04-21T12:36:18.982Z,17.08
2023-04-21T12:39:04.352Z,16.88
2023-04-21T12:41:49.618Z,13.13
2023-04-21T12:44:34.726Z,13.77
2023-04-21T12:47:19.847Z,12.13
2023-04-21T12:50:05.977Z,14.55
2023-04-21T12:52:51.194Z,14.57
2023-04-21T12:55:36.715Z,12.65
2023-04-21T12:58:22.083Z,13.65
2023-04-21T13:01:07.648Z,13.82
2023-04-21T13:03:53.157Z,16.65
2023-04-21T13:06:39.157Z,13.55
2023-04-21T13:09:24.380Z,13.13
2023-04-21T13:12:09.267Z,12.32
2023-04-21T13:14:54.553Z,13.80
2023-04-21T13:17:40.556Z,55.40
2023-04-21T13:20:25.671Z,14.40
2023-04-21T13:23:11.061Z,14.55
2023-04-21T13:25:55.913Z,13.57
2023-04-21T13:28:41.525Z,11.77
2023-04-21T13:31:26.844Z,14.48
2023-04-21T13:34:11.942Z,11.85
2023-04-21T13:36:57.427Z,14.05
2023-04-21T13:39:43.473Z,15.57
2023-04-21T13:42:28.806Z,12.45
2023-04-21T13:45:13.624Z,13.90
2023-04-21T13:47:59.113Z,13.80
2023-04-21T13:50:44.371Z,12.40
2023-04-21T13:53:29.738Z,13.40
2023-04-21T13:56:14.656Z,19.38
2023-04-21T13:59:00.018Z,12.45
2023-04-21T14:01:45.462Z,15.27
2023-04-21T14:04:30.857Z,13.13
2023-04-21T14:07:16.182Z,13.30
2023-04-21T14:10:01.916Z,13.88
2023-04-21T14:12:47.070Z,14.82
2023-04-21T14:15:32.520Z,14.52
2023-04-21T14:18:18.027Z,12.52
2023-04-21T14:21:04.239Z,15.27
2023-04-21T14:23:49.208Z,16.75
2023-04-21T14:26:36.026Z,14.45
2023-04-21T14:29:22.470Z,15.20
2023-04-21T14:32:07.652Z,15.73
2023-04-21T14:34:53.010Z,16.30
2023-04-21T14:37:38.975Z,13.73
2023-04-21T14:40:24.660Z,15.35
2023-04-21T14:43:09.776Z,14.45
2023-04-21T14:45:55.137Z,13.85
2023-04-21T14:48:40.457Z,15.38
2023-04-21T14:51:25.641Z,14.18
2023-04-21T14:54:10.679Z,14.70
2023-04-21T14:57:06.702Z,13.73
2023-04-21T15:00:00.794Z,13.13
2023-04-21T15:02:46.263Z,14.90
2023-04-21T15:05:31.493Z,15.80
2023-04-21T15:08:16.793Z,12.90
2023-04-21T15:11:02.549Z,14.27
2023-04-21T15:13:48.219Z,14.07
2023-04-21T15:16:33.576Z,17.42
2023-04-21T15:19:18.941Z,14.70
2023-04-21T15:22:04.017Z,12.60
2023-04-21T15:24:49.218Z,14.32
2023-04-21T15:27:34.625Z,13.52
2023-04-21T15:30:20.155Z,15.27
2023-04-21T15:33:05.612Z,16.33
2023-04-21T15:35:50.802Z,16.88
2023-04-21T15:38:36.199Z,18.48
2023-04-21T15:41:21.527Z,15.25
2023-04-21T15:44:07.109Z,16.75
2023-04-21T15:46:52.411Z,15.07
2023-04-21T15:49:37.937Z,14.50
2023-04-21T15:52:23.167Z,19.27
2023-04-21T15:55:10.880Z,13.90
2023-04-21T15:57:56.243Z,15.25
2023-04-21T16:00:41.774Z,14.63
2023-04-21T16:03:27.625Z,14.77
2023-04-21T16:06:13.087Z,15.00
2023-04-21T16:08:58.435Z,18.15
2023-04-21T16:11:43.765Z,17.08
2023-04-21T16:14:36.152Z,19.92
2023-04-21T16:17:28.402Z,15.30
2023-04-21T16:20:13.881Z,16.20
2023-04-21T16:22:59.234Z,13.80
2023-04-21T16:25:44.490Z,15.68
2023-04-21T16:28:29.752Z,13.13
2023-04-21T16:31:15.162Z,14.25
2023-04-21T16:34:00.740Z,16.15
2023-04-21T16:36:46.072Z,16.30
2023-04-21T16:39:31.683Z,14.48
2023-04-21T16:42:17.033Z,16.05
2023-04-21T16:45:02.845Z,13.40
2023-04-21T16:47:48.025Z,12.20
2023-04-21T16:50:33.562Z,13.25
2023-04-21T16:53:18.747Z,16.88
2023-04-21T16:56:04.140Z,15.43
2023-04-21T16:58:49.258Z,15.50
2023-04-21T17:01:34.640Z,12.90
2023-04-21T17:04:21.061Z,13.30
2023-04-21T17:07:06.394Z,15.00
2023-04-21T17:09:51.897Z,13.80
2023-04-21T17:12:37.404Z,15.00
2023-04-21T17:15:22.747Z,14.18
2023-04-21T17:18:08.382Z,15.25
2023-04-21T17:20:53.798Z,14.18
2023-04-21T17:23:39.201Z,15.40
2023-04-21T17:26:24.632Z,15.40
2023-04-21T17:29:10.262Z,17.88
2023-04-21T17:31:55.779Z,23.40
2023-04-21T17:34:41.208Z,24.02
2023-04-21T17:37:26.717Z,18.90
2023-04-21T17:40:12.594Z,16.27
2023-04-21T17:42:57.827Z,13.38
2023-04-21T17:45:45.092Z,15.15
2023-04-21T17:48:30.506Z,13.60
2023-04-21T17:51:15.871Z,16.15
2023-04-21T17:54:01.309Z,14.63
2023-04-21T17:56:46.834Z,16.55
2023-04-21T17:59:32.193Z,14.02
2023-04-21T18:02:18.080Z,15.77
2023-04-21T18:05:04.234Z,14.45
2023-04-21T18:07:49.607Z,15.73
2023-04-21T18:10:36.322Z,15.52
2023-04-21T18:13:21.908Z,16.10
2023-04-21T18:16:07.388Z,15.50
2023-04-21T18:18:52.587Z,18.60
2023-04-21T18:21:38.200Z,13.85
2023-04-21T18:24:23.593Z,15.07
2023-04-21T18:27:08.941Z,14.82
2023-04-21T18:29:54.367Z,14.80
2023-04-21T18:32:40.190Z,14.93
2023-04-21T18:35:25.569Z,15.45
2023-04-21T18:38:10.975Z,15.15
2023-04-21T18:40:56.340Z,15.77
2023-04-21T18:43:41.835Z,18.00
2023-04-21T18:46:26.946Z,16.75
2023-04-21T18:49:12.385Z,11.65
2023-04-21T18:51:57.720Z,13.57
2023-04-21T18:54:43.097Z,16.33
2023-04-21T18:57:28.483Z,16.13
2023-04-21T19:00:14.302Z,41.13
2023-04-21T19:03:00.638Z,48.60
2023-04-21T19:05:45.836Z,49.03
2023-04-21T19:08:42.197Z,20.73
2023-04-21T19:11:28.834Z,17.75
2023-04-21T19:14:13.798Z,19.33
2023-04-21T19:16:59.284Z,15.02
2023-04-21T19:19:44.670Z,16.60
2023-04-21T19:22:30.047Z,13.82
2023-04-21T19:25:15.592Z,15.77
2023-04-21T19:28:00.990Z,12.70
2023-04-21T19:30:46.392Z,15.50
2023-04-21T19:33:31.883Z,12.65
2023-04-21T19:36:17.252Z,13.40
2023-04-21T19:39:02.591Z,17.77
2023-04-21T19:41:48.044Z,14.93
2023-04-21T19:44:34.011Z,12.25
2023-04-21T19:47:19.156Z,13.65
2023-04-21T19:50:05.167Z,14.70
2023-04-21T19:52:50.200Z,12.82
2023-04-21T19:55:35.686Z,14.50
2023-04-21T19:58:38.235Z,13.68
2023-04-21T20:01:24.534Z,16.42
2023-04-21T20:04:12.116Z,14.23
2023-04-21T20:06:57.783Z,14.98
2023-04-21T20:09:43.208Z,19.00
2023-04-21T20:12:28.664Z,15.98
2023-04-21T20:15:14.182Z,13.18
2023-04-21T20:17:59.643Z,15.07
2023-04-21T20:20:45.095Z,17.67
2023-04-21T20:23:30.588Z,17.70
2023-04-21T20:26:16.611Z,15.95
2023-04-21T20:29:01.478Z,15.32
2023-04-21T20:31:46.883Z,14.73
2023-04-21T20:34:32.222Z,18.60
2023-04-21T20:37:17.710Z,15.77
2023-04-21T20:40:03.701Z,15.15
2023-04-21T20:42:48.900Z,15.38
2023-04-21T20:45:34.286Z,15.15
2023-04-21T20:48:19.746Z,17.58
2023-04-21T20:51:05.387Z,16.23
2023-04-21T20:53:50.740Z,19.20
2023-04-21T20:56:36.133Z,19.70
2023-04-21T20:59:21.620Z,18.40
2023-04-21T21:02:07.546Z,15.05
2023-04-21T21:04:52.853Z,17.77
2023-04-21T21:07:38.145Z,17.65
2023-04-21T21:10:23.821Z,16.52
2023-04-21T21:13:09.308Z,13.65
2023-04-21T21:15:54.763Z,14.27
2023-04-21T21:18:40.307Z,17.30
2023-04-21T21:21:25.676Z,15.68
2023-04-21T21:24:10.983Z,19.88
2023-04-21T21:26:56.372Z,14.27
2023-04-21T21:29:41.833Z,16.83
2023-04-21T21:32:27.379Z,14.30
2023-04-21T21:35:12.612Z,15.88
2023-04-21T21:37:58.109Z,13.98
2023-04-21T21:40:43.526Z,14.63
2023-04-21T21:43:29.015Z,12.20
2023-04-21T21:46:14.766Z,12.63
2023-04-21T21:48:59.935Z,14.13
2023-04-21T21:51:45.272Z,12.68
2023-04-21T21:54:31.047Z,12.30
2023-04-21T21:57:16.576Z,15.23
2023-04-21T22:00:01.931Z,11.35
2023-04-21T22:02:47.377Z,12.93
2023-04-21T22:05:32.546Z,13.15
2023-04-21T22:08:17.828Z,13.13
2023-04-21T22:11:03.338Z,12.40
2023-04-21T22:13:48.703Z,11.27
2023-04-21T22:16:34.318Z,13.55
2023-04-21T22:19:19.720Z,11.93
2023-04-21T22:22:04.812Z,12.02
2023-04-21T22:24:50.202Z,11.80
2023-04-21T22:27:35.537Z,13.82
2023-04-21T22:30:20.928Z,12.07
2023-04-21T22:33:06.171Z,13.02
2023-04-21T22:35:51.353Z,13.02
2023-04-21T22:38:36.830Z,15.18
2023-04-21T22:41:22.198Z,13.80
2023-04-21T22:44:07.635Z,18.85
2023-04-21T22:46:53.130Z,14.80
2023-04-21T22:49:39.098Z,14.52
2023-04-21T22:52:24.531Z,13.82
2023-04-21T22:55:10.258Z,14.07
2023-04-21T22:57:55.239Z,13.80
2023-04-21T23:00:40.243Z,14.80
2023-04-21T23:03:25.419Z,13.73
2023-04-21T23:06:10.730Z,15.32
2023-04-21T23:08:55.735Z,15.75
2023-04-21T23:11:41.343Z,14.00
2023-04-21T23:14:26.424Z,15.80
2023-04-21T23:17:11.763Z,15.63
2023-04-21T23:19:56.739Z,18.58
2023-04-21T23:22:42.111Z,16.05
2023-04-21T23:25:27.707Z,13.60
2023-04-21T23:28:13.122Z,16.92
2023-04-21T23:30:58.804Z,15.18
2023-04-21T23:33:44.020Z,14.75
2023-04-21T23:36:29.241Z,17.17
2023-04-21T23:39:14.194Z,15.48
2023-04-21T23:41:59.566Z,16.33
2023-04-21T23:44:45.154Z,15.90
2023-04-21T23:47:29.928Z,18.05
2023-04-21T23:50:15.124Z,15.80
2023-04-21T23:53:00.495Z,15.50
2023-04-21T23:55:45.931Z,18.13
2023-04-21T23:58:31.406Z,15.90
